Liste des engagé(e)s
Classement
PDF
   
         
   
 
Pos N° Nom Prénom Pays Temps Ecart Pl. Cat. Pl. Sexe Club
1 1113 ALTHUSER Malo 00:03:02 1 PO 1 M
2 1136 FROMAGET VALLE David 00:03:05 03 2 PO 2 M
3 1126 PICKAERTS Jeanne 00:03:05 03 1 PO 1 F
4 1201 VALVERDE Esteban 00:03:09 07 3 PO 3 M
5 1119 PERRIN Louis 00:03:12 10 4 PO 4 M
6 1226 KARAMALI Nikita 00:03:13 11 2 PO 2 F
7 1156 SPOLTI Thomas 00:03:14 12 5 PO 5 M
8 1097 TISSERANT Albane 00:03:15 13 3 PO 3 F
9 1203 LORIGEON RĂ©mi 00:03:15 13 6 PO 6 M
10 1207 KABWE Benjamin 00:03:17 15 7 PO 7 M
11 1166 PIERRE Noah 00:03:19 17 8 PO 8 M
12 1188 ROUDIER Gabriel 00:03:20 18 9 PO 9 M
13 1204 LORIGEON Gabin 00:03:20 18 10 PO 10 M
14 1131 BOSIO Romain 00:03:21 19 11 PO 11 M
15 1187 LE GALL Zoé 00:03:22 20 4 PO 4 F
16 1082 FAYDIDE Oscar 00:03:22 20 12 PO 12 M
17 1186 RAIMBAULT Marius 00:03:23 21 1 EA 13 M
18 1182 BESACER Fantin 00:03:24 22 13 PO 14 M
19 1228 MAIORANA Clement 00:03:25 23 14 PO 15 M
20 1197 FAYE-CATELAN Romain 00:03:26 24 15 PO 16 M
21 1211 GUYOT Manon 00:03:26 24 5 PO 5 F
22 1216 VAN BUTSELE Elea 00:03:27 25 6 PO 6 F
23 1120 LAIR Amaury 00:03:27 25 16 PO 17 M
24 1146 GIBELIN Ilouane 00:03:28 26 2 EA 18 M
25 1087 GUILLAUD Isaline 00:03:28 26 7 PO 7 F
26 1165 VAUCHEL Victor 00:03:28 26 17 PO 19 M
27 1104 FREYCENON Thibaut 00:03:29 27 18 PO 20 M
28 1206 BOYÉ Alexis 00:03:29 27 19 PO 21 M
29 1229 FOURNERIE Jules 00:03:30 28 3 EA 22 M
30 1125 PROST-TOURNIER Samuel 00:03:30 28 20 PO 23 M
31 1143 COUSIN Arthur 00:03:30 28 4 EA 24 M
32 1137 LINGARD Matthieu 00:03:31 29 21 PO 25 M
33 1118 CHARDONNEREAU Arthur 00:03:32 30 22 PO 26 M
34 1157 LORPHELIN Antoine 00:03:32 30 23 PO 27 M
35 1159 PEYRARD BARREAU Noé 00:03:33 31 24 PO 28 M
36 1127 GONON-AGONI Tymothé 00:03:34 32 25 PO 29 M
37 1149 GOUBY Nilo 00:03:34 32 26 PO 30 M
38 1192 GARON BOSTVIRONNOIS Jules 00:03:34 32 5 EA 31 M
39 1117 PERNOT Alice 00:03:35 33 1 EA 8 F
40 1134 BRISION Elodie 00:03:36 34 8 PO 9 F
41 1099 ALBERTIN Pierrick 00:03:36 34 27 PO 32 M
42 1174 LOURENÇO Martin 00:03:36 34 28 PO 33 M
43 1190 BENIS Emilie 00:03:37 35 9 PO 10 F
44 1115 DEGARDIN Charline 00:03:39 37 10 PO 11 F
45 1130 DE PAEPE Gabriel 00:03:39 37 6 EA 34 M
46 1147 REY-GALIAY KĂ©lian 00:03:40 38 7 EA 35 M
47 1221 JAN Boris 00:03:40 38 29 PO 36 M
48 1145 CHEVY-CHAUSSIDON MĂ©lissa 00:03:41 39 11 PO 12 F
49 1103 ROUX-SIBILON Louna 00:03:41 39 2 EA 13 F
50 1111 PELLIER Jules 00:03:42 40 8 EA 37 M
51 1205 RIBOUD Max 00:03:43 41 9 EA 38 M
52 1086 RICHARD Eleane 00:03:43 41 12 PO 14 F
53 1151 BAFFERT Jules 00:03:44 42 30 PO 39 M
54 1196 POYET Valentin 00:03:45 43 10 EA 40 M
55 1164 CARABIN Tina 00:03:46 44 13 PO 15 F
56 1199 ANCION Nicolas 00:03:46 44 31 PO 41 M
57 1227 MAIORANA Julie 00:03:47 45 3 EA 16 F
58 1088 ROUAULT Gabriel 00:03:48 46 32 PO 42 M
59 1083 FAYDIDE Clovis 00:03:50 48 33 PO 43 M
60 1152 BOUABBAS Mouad 00:03:50 48 11 EA 44 M
61 1094 LEICHER Mathieu 00:03:51 49 34 PO 45 M
62 1132 LHOSTE Marius 00:03:51 49 12 EA 46 M
63 1123 MAYOR Nathan 00:03:51 49 13 EA 47 M
64 1225 KARAMALI Eloe 00:03:54 52 14 PO 17 F
65 1178 GIACOMINI Antoni 00:03:54 52 35 PO 48 M
66 1141 PASQUALON Melie 00:03:54 52 15 PO 18 F
67 1116 DEGARDIN Quentin 00:03:55 53 14 EA 49 M
68 1153 BOUABBAS Aicha 00:03:55 53 16 PO 19 F
69 1121 ANNEQUIN Loris 00:03:55 53 36 PO 50 M
70 1177 DELAFON Madeleine 00:03:56 54 17 PO 20 F
71 1209 BEA-DELPOUX Clément 00:03:56 54 15 EA 51 M
72 1218 BACHER Eliott 00:03:57 55 37 PO 52 M
73 1129 CHOSSANDE Julien 00:03:58 56 16 EA 53 M
74 1154 SCOLAN-LETORT Armel 00:03:59 57 38 PO 54 M
75 1155 SCOLAN-LETORT Ella 00:03:59 57 18 PO 21 F
76 1161 GUAY Lilouan 00:04:00 58 17 EA 55 M
77 1171 NANCEY Romane 00:04:00 58 4 EA 22 F
78 1090 VEREECKEN Ruben 00:04:01 59 18 EA 56 M
79 1217 VAN BUTSELE Tess 00:04:01 59 5 EA 23 F
80 1124 PERNOUD Antoine 00:04:02 01:00 39 PO 57 M
81 1222 GALLIN Amael 00:04:02 01:00 40 PO 58 M
82 1193 GUELOUL Kamil 00:04:02 01:00 19 EA 59 M
83 1114 GONON-AGONI Clara 00:04:02 01:00 19 PO 24 F
84 1195 BRETECHER LĂ©andre 00:04:02 01:00 20 EA 60 M
85 1175 BENKO Andrea 00:04:04 01:02 21 EA 61 M
86 1148 GOYARD Perrine 00:04:04 01:02 20 PO 25 F
87 1208 DELAFON Emile 00:04:05 01:03 22 EA 62 M
88 1179 CALEPRICO Tommy 00:04:05 01:03 41 PO 63 M
89 1089 ROUAULT Rafael 00:04:07 01:05 23 EA 64 M
90 1202 VOGLER Noe 00:04:08 01:06 42 PO 65 M
91 1176 ALONZO Gabriel 00:04:09 01:07 43 PO 66 M
92 1172 MILLAND Alix 00:04:09 01:07 21 PO 26 F
93 1215 SALIOU Maxence 00:04:10 01:08 24 EA 67 M
94 1191 CASTAGNÉ Raphaël 00:04:10 01:08 44 PO 68 M
95 1169 PEYRARD BARREAU Elio 00:04:12 01:10 45 PO 69 M
96 1181 HUE Amaury 00:04:12 01:10 46 PO 70 M
97 1138 SAMMUT LĂ©o 00:04:12 01:10 25 EA 71 M
98 1180 PEYRADE Mathilde 00:04:12 01:10 22 PO 27 F
99 1210 GUYOT Romane 00:04:14 01:12 6 EA 28 F
100 1219 MICON Alois 00:04:15 01:13 7 EA 29 F
101 1194 MARTELON Quentin 00:04:16 01:14 47 PO 72 M
102 1128 NOIR Jeanne 00:04:16 01:14 8 EA 30 F
103 1184 BENEUL Nils 00:04:18 01:16 26 EA 73 M
104 1140 BAFFERT Clémentine 00:04:19 01:17 9 EA 31 F
105 1139 BAFFERT Romane 00:04:19 01:17 23 PO 32 F
106 1084 MARTINEZ Evangeline 00:04:19 01:17 10 EA 33 F
107 1085 GAUTIER Baptiste 00:04:22 01:20 48 PO 74 M
108 1230 CUERRY Elea 00:04:22 01:20 11 EA 34 F
109 1109 CALAFAT Jules 00:04:24 01:22 27 EA 75 M
110 1223 TOUNSI Ismail 00:04:27 01:25 49 PO 76 M
111 1095 BRAUN Justine 00:04:28 01:26 12 EA 35 F
112 1167 DURET Morgan 00:04:29 01:27 50 PO 77 M
113 1144 MICHALINA Elisa 00:04:31 01:29 13 EA 36 F
114 1220 ALVES Lenny 00:04:32 01:30 28 EA 78 M
115 1183 BESACIER Lison 00:04:33 01:31 14 EA 37 F
116 1135 BRISION Laura 00:04:34 01:32 15 EA 38 F
117 1106 BOURG Lohan 00:04:36 01:34 29 EA 79 M
118 1102 AMOUDRUZ Clémence 00:04:38 01:36 16 EA 39 F
119 1122 LAMPREIA Tanguy 00:04:39 01:37 51 PO 80 M
120 1105 GERVASONI Eugénie 00:04:41 01:39 17 EA 40 F
121 1200 KELLER Faustine 00:04:42 01:40 18 EA 41 F
122 1160 PASCOVSCHI Nathan 00:04:45 01:43 52 PO 81 M
123 1142 CHATEL Eliott 00:04:46 01:44 30 EA 82 M
124 1093 LEICHER Lilou 00:04:49 01:47 19 EA 42 F
125 1150 GONON Alexandra 00:04:49 01:47 20 EA 43 F
126 1098 BERTHAUD Paul 00:05:10 02:08 31 EA 83 M
127 1096 TISSERANT Nina 00:05:12 02:10 24 PO 44 F
128 1081 NAUDET Evangéline 00:05:20 02:18 21 EA 45 F
129 1163 SEGARD Clea 00:05:21 02:19 22 EA 46 F
130 1158 LORPHELIN AnaĂŻs 00:05:33 02:31 23 EA 47 F
131 1173 CODRON Calypso 00:06:26 03:24 24 EA 48 F
132 1107 GOUYON Noélie 00:06:48 03:46 25 EA 49 F
  La Course des Mini-lutins - 0.8km 2019
 
Nombre ou lettres (3 minimum)
Classement    
Filtre :
Rang :